Time;durP1;ratioP1;P1;durP2;ratioP2;P2;SDS_P1;SDS_P2;PMS_P1;PMS_P2;Temp;Humidity;BMP_temperature;BMP_pressure;BME280_temperature;BME280_humidity;BME280_pressure;Samples;Min_cycle;Max_cycle;Signal;HPM_P1;HPM_P2
2022/07/03 00:01:24;;;;;;;52.28;49.55;;;;;;;19.02;65.71;96928.00;5055693;28;20212;-57
2022/07/03 00:03:49;;;;;;;55.40;52.33;;;;;;;19.09;65.75;96925.03;5073900;28;20169;-55
2022/07/03 00:06:15;;;;;;;50.00;47.35;;;;;;;19.07;65.80;96924.50;5073914;28;20197;-54
2022/07/03 00:08:40;;;;;;;46.13;43.58;;;;;;;18.96;65.99;96923.78;5055695;28;20185;-56
2022/07/03 00:11:06;;;;;;;44.70;42.40;;;;;;;19.01;66.06;96920.28;5072910;28;20205;-58
2022/07/03 00:13:32;;;;;;;38.38;36.42;;;;;;;19.13;65.84;96927.91;5073590;28;20227;-58
2022/07/03 00:15:58;;;;;;;36.67;34.83;;;;;;;19.02;66.21;96927.19;5073569;28;20161;-58
2022/07/03 00:18:23;;;;;;;34.23;32.43;;;;;;;18.93;66.65;96920.91;5073145;28;20205;-57
2022/07/03 00:21:10;;;;;;;28.40;26.98;;;;;;;18.86;66.96;96923.84;5073129;28;20657;-57
2022/07/03 00:23:44;;;;;;;38.03;36.03;;;;;;;18.86;67.26;96923.84;5073402;28;20169;-57
2022/07/03 00:26:12;;;;;;;51.35;48.60;;;;;;;18.89;67.53;96928.59;5072726;28;20658;-57
2022/07/03 00:28:37;;;;;;;65.32;61.58;;;;;;;18.80;68.00;96930.25;5072720;28;20223;-58
2022/07/03 00:31:04;;;;;;;96.77;91.57;;;;;;;18.81;68.05;96928.41;5071614;28;20662;-59
2022/07/03 00:33:33;;;;;;;169.10;160.23;;;;;;;18.89;68.06;96925.19;5072951;28;20264;-60
2022/07/03 00:35:59;;;;;;;213.23;202.13;;;;;;;18.83;68.28;96932.38;5072748;28;20281;-59
2022/07/03 00:38:25;;;;;;;282.53;267.87;;;;;;;18.77;68.47;96928.16;5048634;28;20750;-59
2022/07/03 00:40:50;;;;;;;312.20;296.17;;;;;;;18.78;68.79;96927.09;5070453;28;20579;-58
2022/07/03 00:43:20;;;;;;;328.98;311.67;;;;;;;18.81;68.78;96925.75;5073069;28;20174;-59
2022/07/03 00:45:49;;;;;;;365.50;346.13;;;;;;;18.77;68.91;96930.03;5072828;28;20203;-57
2022/07/03 00:48:17;;;;;;;380.53;360.17;;;;;;;18.79;69.13;96927.88;5073022;28;20169;-59
2022/07/03 00:50:50;;;;;;;388.60;367.60;;;;;;;18.76;69.33;96926.59;5072638;28;20311;-57
2022/07/03 00:53:27;;;;;;;376.97;356.60;;;;;;;18.72;69.54;96925.56;5072571;28;20601;-58
2022/07/03 00:55:54;;;;;;;372.43;352.20;;;;;;;18.74;69.68;96927.91;5072661;28;20185;-58
2022/07/03 00:58:20;;;;;;;331.83;313.73;;;;;;;18.71;70.04;96923.97;5072469;28;20213;-58
2022/07/03 01:00:49;;;;;;;300.48;284.02;;;;;;;18.71;69.94;96923.97;5072594;28;20197;-58
2022/07/03 01:03:17;;;;;;;236.90;224.47;;;;;;;18.62;70.55;96926.38;5072763;28;20176;-59
2022/07/03 01:05:45;;;;;;;210.80;199.75;;;;;;;18.79;69.93;96930.53;5072079;28;20204;-59
2022/07/03 01:08:38;;;;;;;183.50;173.97;;;;;;;18.72;70.34;96925.56;5072417;28;20177;-60
2022/07/03 01:11:18;;;;;;;131.53;124.47;;;;;;;18.72;70.50;96922.91;5071809;28;20220;-58
2022/07/03 01:14:04;;;;;;;92.80;87.88;;;;;;;18.57;71.42;96930.91;5072377;28;20633;-58
2022/07/03 01:16:55;;;;;;;74.97;71.07;;;;;;;18.65;71.01;96935.69;5072832;28;20188;-55
2022/07/03 01:19:32;;;;;;;51.13;47.93;;;;;;;18.63;71.10;96925.31;5054258;28;20713;-58
2022/07/03 01:22:31;;;;;;;63.33;59.53;;;;;;;18.56;71.65;96919.50;5071735;28;20319;-58
2022/07/03 01:25:03;;;;;;;107.33;101.70;;;;;;;18.58;71.67;96914.72;5072074;28;20559;-58
2022/07/03 01:28:10;;;;;;;264.83;251.40;;;;;;;18.44;72.44;96927.00;5072291;28;20594;-58
2022/07/03 01:30:39;;;;;;;278.63;264.70;;;;;;;18.52;72.15;96917.66;5068131;28;20204;-57
2022/07/03 01:33:15;;;;;;;338.23;320.67;;;;;;;18.40;72.33;96911.88;5071872;28;20646;-57
2022/07/03 01:35:46;;;;;;;334.27;317.03;;;;;;;18.36;72.90;96908.97;5071948;28;20599;-58
2022/07/03 01:38:13;;;;;;;353.85;335.17;;;;;;;18.38;72.79;96916.66;5069681;28;20290;-59
2022/07/03 01:40:40;;;;;;;346.77;328.73;;;;;;;18.50;72.22;96909.94;5071734;28;20201;-58
2022/07/03 01:43:09;;;;;;;302.57;287.00;;;;;;;18.43;72.59;96904.16;5071609;28;20169;-58
2022/07/03 01:45:47;;;;;;;212.30;201.73;;;;;;;18.36;73.15;96910.84;5072039;28;20204;-58
2022/07/03 01:48:15;;;;;;;138.80;131.83;;;;;;;18.22;74.09;96911.41;5071992;28;20165;-58
2022/07/03 01:50:42;;;;;;;106.43;100.85;;;;;;;18.29;73.76;96914.56;5072138;28;20223;-57
2022/07/03 01:53:09;;;;;;;77.77;73.70;;;;;;;18.25;73.95;96916.19;5072044;28;20161;-58
2022/07/03 01:55:38;;;;;;;54.70;51.73;;;;;;;18.27;74.01;96918.56;5071398;28;20165;-58
2022/07/03 01:58:04;;;;;;;50.20;47.60;;;;;;;18.37;73.80;96909.78;5072326;28;20181;-58
2022/07/03 02:00:30;;;;;;;49.70;46.97;;;;;;;18.35;73.82;96918.00;5072732;28;20203;-57
2022/07/03 02:03:01;;;;;;;52.63;49.83;;;;;;;18.24;74.40;96917.25;5072500;28;20169;-56
2022/07/03 02:05:34;;;;;;;60.47;57.27;;;;;;;18.21;74.45;96907.19;5071914;28;20658;-58
2022/07/03 02:08:27;;;;;;;73.63;69.57;;;;;;;18.25;74.62;96907.44;5071908;28;20255;-58
2022/07/03 02:11:17;;;;;;;79.77;75.53;;;;;;;18.23;74.85;96905.03;5066966;28;20213;-58
2022/07/03 02:13:55;;;;;;;93.33;88.33;;;;;;;18.21;74.97;96904.53;5069697;28;20187;-58
2022/07/03 02:16:23;;;;;;;108.27;102.57;;;;;;;18.12;75.63;96911.44;5071790;28;20162;-58
2022/07/03 02:19:03;;;;;;;123.07;116.53;;;;;;;18.08;75.97;96912.28;5070989;28;20165;-58
2022/07/03 02:21:30;;;;;;;152.90;144.87;;;;;;;18.08;76.00;96899.81;5071703;28;20751;-58
2022/07/03 02:24:10;;;;;;;192.07;181.73;;;;;;;17.98;76.78;96905.16;5071197;28;20166;-58
2022/07/03 02:26:38;;;;;;;273.00;258.27;;;;;;;18.05;76.90;96903.00;5051620;28;20615;-58
2022/07/03 02:29:07;;;;;;;281.30;265.73;;;;;;;18.00;77.04;96903.00;5064611;28;20238;-58
2022/07/03 02:31:42;;;;;;;256.63;242.73;;;;;;;17.94;77.19;96903.31;5071410;28;20639;-58
2022/07/03 02:34:14;;;;;;;205.93;195.00;;;;;;;18.13;76.34;96897.13;5071449;28;20180;-58
2022/07/03 02:36:42;;;;;;;169.97;160.57;;;;;;;18.13;76.68;96899.78;5071171;28;20547;-58
2022/07/03 02:39:14;;;;;;;124.83;118.30;;;;;;;18.07;76.99;96895.56;5069101;28;20742;-58
2022/07/03 02:42:04;;;;;;;104.83;99.23;;;;;;;18.02;77.22;96900.88;5071657;28;20280;-59
2022/07/03 02:44:45;;;;;;;89.03;84.30;;;;;;;17.96;77.39;96891.34;5071451;28;20640;-57
2022/07/03 02:47:25;;;;;;;84.93;80.27;;;;;;;18.02;77.25;96900.88;5071871;28;20200;-57
2022/07/03 02:50:10;;;;;;;95.60;90.67;;;;;;;17.91;78.08;96904.63;5071072;28;20264;-58
2022/07/03 02:52:38;;;;;;;92.57;87.83;;;;;;;17.90;78.36;96903.03;5070856;28;20186;-56
2022/07/03 02:55:34;;;;;;;84.03;79.73;;;;;;;17.89;78.65;96906.75;5073274;28;20300;-58
2022/07/03 02:58:51;;;;;;;72.53;68.73;;;;;;;17.94;78.64;96906.75;5066083;28;20189;-58
2022/07/03 03:01:19;;;;;;;66.80;63.33;;;;;;;18.00;78.43;96910.97;5019707;28;20216;-57
2022/07/03 03:04:01;;;;;;;88.97;84.13;;;;;;;17.88;78.94;96907.84;5074989;28;20622;-58
2022/07/03 03:06:29;;;;;;;85.90;81.33;;;;;;;17.81;79.32;96920.56;5075514;28;20706;-58
2022/07/03 03:09:02;;;;;;;115.60;109.53;;;;;;;17.82;79.63;96912.38;5075476;28;20200;-61
2022/07/03 03:11:47;;;;;;;125.43;118.87;;;;;;;17.83;79.37;96927.19;5075744;28;20234;-58
2022/07/03 03:14:19;;;;;;;138.50;131.20;;;;;;;17.86;79.13;96921.34;5075590;28;20185;-57
2022/07/03 03:16:51;;;;;;;153.90;145.90;;;;;;;17.84;79.61;96927.97;5075142;28;20196;-57
2022/07/03 03:19:24;;;;;;;170.73;161.93;;;;;;;17.86;79.52;96916.06;5074226;28;20181;-56
2022/07/03 03:22:24;;;;;;;221.37;209.90;;;;;;;17.84;79.47;96918.19;5074654;28;20284;-56
2022/07/03 03:24:50;;;;;;;192.83;182.97;;;;;;;17.87;79.44;96924.81;4989864;28;20224;-57
2022/07/03 03:27:17;;;;;;;176.50;167.23;;;;;;;17.88;79.68;96918.44;5074851;28;20161;-58
2022/07/03 03:29:42;;;;;;;138.53;131.33;;;;;;;17.73;80.36;96934.38;5074422;28;20264;-58
2022/07/03 03:32:08;;;;;;;128.83;122.17;;;;;;;17.83;80.03;96932.50;5075050;28;20689;-57
2022/07/03 03:34:34;;;;;;;112.83;106.70;;;;;;;17.83;80.20;96931.72;5074856;28;20185;-57
2022/07/03 03:37:00;;;;;;;166.60;157.87;;;;;;;17.88;80.13;96939.66;5074812;28;20181;-61
2022/07/03 03:39:26;;;;;;;211.00;200.27;;;;;;;18.18;78.73;96928.94;5072711;28;20244;-58
2022/07/03 03:41:52;;;;;;;138.10;130.97;;;;;;;18.25;78.21;96936.63;5074440;28;20521;-59
2022/07/03 03:44:18;;;;;;;89.03;84.43;;;;;;;18.29;78.11;96937.66;5073955;28;20175;-59
2022/07/03 03:46:43;;;;;;;223.27;211.30;;;;;;;18.50;76.98;96938.38;5073684;28;20260;-59
2022/07/03 03:49:09;;;;;;;233.23;220.85;;;;;;;18.63;76.23;96943.09;5073685;28;20660;-61
2022/07/03 03:51:34;;;;;;;187.85;178.18;;;;;;;18.91;75.03;96944.28;5073815;28;20209;-57
2022/07/03 03:54:00;;;;;;;169.50;160.83;;;;;;;19.07;74.03;96935.13;5073989;28;20174;-59
2022/07/03 03:56:25;;;;;;;74.37;70.43;;;;;;;19.16;73.26;96938.81;5073468;28;20223;-61
2022/07/03 03:58:51;;;;;;;292.95;275.30;;;;;;;19.42;72.01;96937.53;5073641;28;20223;-58
2022/07/03 04:01:16;;;;;;;459.65;431.10;;;;;;;19.61;71.03;96936.88;5073579;28;20251;-59
2022/07/03 04:03:42;;;;;;;308.45;289.92;;;;;;;19.76;70.10;96936.72;5073640;28;20534;-58
2022/07/03 04:06:08;;;;;;;168.30;158.68;;;;;;;19.99;69.14;96943.13;5073536;28;20233;-58
2022/07/03 04:08:33;;;;;;;171.65;162.02;;;;;;;20.08;68.62;96939.56;5073476;28;20193;-57
2022/07/03 04:11:00;;;;;;;89.15;84.25;;;;;;;20.39;67.23;96941.91;5073095;28;20201;-54
2022/07/03 04:13:25;;;;;;;74.75;70.72;;;;;;;20.65;66.21;96943.16;5073498;28;20634;-56
2022/07/03 04:15:52;;;;;;;62.03;58.75;;;;;;;20.57;66.19;96936.59;5073353;28;20212;-59
2022/07/03 04:18:18;;;;;;;61.63;58.50;;;;;;;20.78;65.54;96939.00;5072981;28;20600;-59
2022/07/03 04:20:44;;;;;;;64.15;60.78;;;;;;;20.64;65.90;96941.56;5073098;28;20208;-59
2022/07/03 04:23:10;;;;;;;81.50;77.40;;;;;;;20.68;65.50;96939.91;5055578;28;20177;-62
2022/07/03 04:25:35;;;;;;;76.30;72.43;;;;;;;20.61;65.96;96948.28;5073266;28;20209;-61
2022/07/03 04:28:01;;;;;;;88.90;84.22;;;;;;;20.74;65.81;96952.09;5073232;28;20248;-57
2022/07/03 04:30:26;;;;;;;100.13;94.72;;;;;;;21.18;64.52;96957.09;5073074;28;20387;-60
2022/07/03 04:32:52;;;;;;;77.57;73.60;;;;;;;21.26;64.51;96952.97;5073227;28;20212;-59
2022/07/03 04:35:17;;;;;;;71.13;67.40;;;;;;;21.21;64.08;96961.84;5073410;28;20650;-57
2022/07/03 04:37:44;;;;;;;77.97;74.00;;;;;;;21.47;63.14;96955.03;5071732;28;20265;-62
2022/07/03 04:40:10;;;;;;;84.63;80.35;;;;;;;21.57;62.56;96959.41;5071709;28;20685;-59
2022/07/03 04:42:35;;;;;;;84.82;80.60;;;;;;;21.69;62.38;96962.41;5072959;28;20173;-58
2022/07/03 04:45:02;;;;;;;73.57;69.97;;;;;;;21.66;62.35;96968.34;5072872;28;20185;-59
2022/07/03 04:47:27;;;;;;;62.28;59.20;;;;;;;21.94;61.34;96975.34;5072897;28;20169;-59
2022/07/03 04:49:53;;;;;;;74.90;71.18;;;;;;;22.06;60.81;96972.19;5073143;28;20652;-59
2022/07/03 04:52:18;;;;;;;149.50;142.20;;;;;;;21.71;62.53;96978.13;5073132;28;20228;-58
2022/07/03 04:54:44;;;;;;;150.15;142.82;;;;;;;22.10;61.29;96981.19;5072649;28;20256;-59
2022/07/03 04:57:09;;;;;;;148.73;141.38;;;;;;;22.18;61.07;96972.47;5072702;28;20268;-59
2022/07/03 04:59:35;;;;;;;129.60;123.18;;;;;;;22.45;60.03;96971.72;5072662;28;20533;-58
2022/07/03 05:02:00;;;;;;;228.38;217.15;;;;;;;22.75;59.59;96975.66;5072693;28;20199;-59
2022/07/03 05:04:26;;;;;;;251.38;239.00;;;;;;;22.47;60.21;96974.06;5054715;28;20634;-59
2022/07/03 05:06:51;;;;;;;187.32;177.77;;;;;;;22.36;60.23;96979.63;5072769;28;20176;-59
2022/07/03 05:09:18;;;;;;;335.60;318.45;;;;;;;22.68;59.27;96977.94;5072306;28;20200;-59
2022/07/03 05:11:44;;;;;;;431.13;408.48;;;;;;;23.10;58.51;96974.09;5072228;28;20557;-59
2022/07/03 05:14:09;;;;;;;455.23;431.75;;;;;;;22.91;58.86;96978.78;5055238;28;20161;-59
2022/07/03 05:16:35;;;;;;;511.58;485.10;;;;;;;23.21;58.17;96981.59;5072245;28;20638;-60
2022/07/03 05:19:00;;;;;;;522.00;495.17;;;;;;;23.61;57.03;96979.06;5072125;28;20180;-59
2022/07/03 05:21:26;;;;;;;554.05;525.78;;;;;;;23.79;56.27;96972.72;5072298;28;20192;-60
2022/07/03 05:23:51;;;;;;;479.92;455.40;;;;;;;23.59;57.68;96973.22;5072330;28;20165;-59
2022/07/03 05:26:17;;;;;;;439.48;417.15;;;;;;;23.46;57.79;96982.88;5072048;28;20215;-60
2022/07/03 05:28:42;;;;;;;457.65;434.02;;;;;;;23.66;57.57;96970.91;5071992;28;20577;-59
2022/07/03 05:31:08;;;;;;;433.48;411.40;;;;;;;24.18;56.33;96984.63;5071833;28;20287;-60
2022/07/03 05:33:34;;;;;;;489.40;463.20;;;;;;;24.12;56.18;96983.13;5072159;28;20528;-59
2022/07/03 05:36:00;;;;;;;481.15;455.73;;;;;;;24.12;56.56;96983.13;5071439;28;20189;-60
2022/07/03 05:41:10;;;;;;;660.50;622.58;;;;;;;24.88;54.23;96992.56;5072190;28;20266;-59
2022/07/03 05:43:35;;;;;;;516.58;488.23;;;;;;;24.39;55.27;96986.44;5071931;28;20189;-59
2022/07/03 05:46:02;;;;;;;379.33;358.33;;;;;;;24.63;55.05;96987.91;5072185;28;20193;-57
2022/07/03 05:48:29;;;;;;;327.00;309.10;;;;;;;24.46;55.15;96988.66;5071924;28;20208;-58
2022/07/03 05:50:55;;;;;;;337.95;319.00;;;;;;;24.58;55.04;96988.84;5071579;28;20201;-60
2022/07/03 05:53:20;;;;;;;291.13;274.83;;;;;;;24.58;55.12;96990.72;5054264;28;20188;-59
2022/07/03 05:55:46;;;;;;;258.25;243.85;;;;;;;25.12;53.63;96984.88;5072052;28;20157;-59
2022/07/03 05:58:11;;;;;;;292.58;275.98;;;;;;;25.08;53.72;96983.09;5071497;28;20232;-60
2022/07/03 06:00:37;;;;;;;278.70;262.73;;;;;;;24.86;54.23;96976.75;5071992;28;20185;-60
2022/07/03 06:03:02;;;;;;;235.48;222.27;;;;;;;25.23;53.71;96983.44;5071931;28;20551;-60
2022/07/03 06:05:28;;;;;;;237.10;223.52;;;;;;;25.28;53.70;96985.19;5072050;28;20197;-60
2022/07/03 06:07:55;;;;;;;228.70;215.90;;;;;;;25.56;53.24;96983.78;5071884;28;20660;-60
2022/07/03 06:10:20;;;;;;;218.07;205.77;;;;;;;25.65;53.07;96984.53;5070830;28;20251;-60
2022/07/03 06:12:46;;;;;;;226.10;213.50;;;;;;;25.54;53.24;96987.84;5071910;28;20576;-59
2022/07/03 06:15:11;;;;;;;223.93;211.90;;;;;;;25.94;51.99;96985.75;5071720;28;20244;-59
2022/07/03 06:17:38;;;;;;;199.77;188.90;;;;;;;25.78;52.10;96987.38;5071708;28;20166;-57
2022/07/03 06:20:05;;;;;;;214.68;203.25;;;;;;;25.51;52.53;96989.28;5071867;28;20185;-58
2022/07/03 06:22:31;;;;;;;232.30;219.73;;;;;;;25.34;52.82;96991.19;5071793;28;20284;-58
2022/07/03 06:24:56;;;;;;;224.20;212.40;;;;;;;25.67;52.26;96997.66;5071996;28;20555;-56
2022/07/03 06:27:22;;;;;;;234.77;222.18;;;;;;;25.41;52.81;96991.50;5071660;28;20168;-57
2022/07/03 06:29:49;;;;;;;219.68;207.45;;;;;;;25.23;52.79;96979.97;5073258;28;20181;-58
2022/07/03 06:32:15;;;;;;;213.73;201.30;;;;;;;25.55;52.51;96982.16;5057255;28;20243;-58
2022/07/03 06:34:42;;;;;;;208.38;196.25;;;;;;;25.06;53.44;96983.44;5075054;28;20204;-58
2022/07/03 06:37:08;;;;;;;223.45;210.85;;;;;;;25.47;52.50;96985.63;5075367;28;20208;-58
2022/07/03 06:39:34;;;;;;;197.50;185.95;;;;;;;25.05;54.02;96989.91;5057938;28;20272;-58
2022/07/03 06:41:59;;;;;;;243.40;228.88;;;;;;;25.67;53.05;96979.66;5055362;28;20224;-58
2022/07/03 06:44:24;;;;;;;237.00;223.00;;;;;;;25.59;53.04;96983.13;5055333;28;20619;-58
2022/07/03 06:46:50;;;;;;;263.45;247.68;;;;;;;25.62;52.71;96987.09;5055292;28;20158;-57
2022/07/03 06:49:15;;;;;;;251.13;236.05;;;;;;;25.75;52.55;96994.16;5055238;28;20265;-59
2022/07/03 06:51:41;;;;;;;225.45;212.18;;;;;;;25.73;52.21;96996.38;5055332;28;20201;-58
2022/07/03 06:54:06;;;;;;;245.48;230.98;;;;;;;25.78;52.15;96998.91;5055134;28;20151;-59
2022/07/03 06:56:32;;;;;;;239.43;225.32;;;;;;;26.23;51.46;96991.22;5054793;28;20154;-60
2022/07/03 06:58:57;;;;;;;236.65;223.95;;;;;;;26.70;49.26;96989.25;5055305;28;20212;-60
2022/07/03 07:01:23;;;;;;;205.80;194.77;;;;;;;26.82;49.43;96989.34;5054658;28;20228;-63
2022/07/03 07:04:00;;;;;;;199.30;188.73;;;;;;;26.62;49.75;96998.16;5053594;28;20700;-61
2022/07/03 07:06:25;;;;;;;210.82;199.63;;;;;;;26.64;49.62;97003.22;5054893;28;20197;-60
2022/07/03 07:08:51;;;;;;;199.70;189.35;;;;;;;27.03;49.23;96996.69;5054620;28;20521;-59
2022/07/03 07:11:16;;;;;;;155.52;147.70;;;;;;;27.08;48.29;96991.91;5054063;28;20213;-60
2022/07/03 07:13:42;;;;;;;151.75;144.00;;;;;;;26.91;49.04;96996.59;5054980;28;20162;-60
2022/07/03 07:16:07;;;;;;;157.93;149.80;;;;;;;27.04;48.55;97000.94;5054500;28;20612;-62
2022/07/03 07:18:34;;;;;;;125.20;118.63;;;;;;;26.97;48.35;97000.69;5058861;28;20260;-60
2022/07/03 07:21:00;;;;;;;116.40;110.43;;;;;;;27.00;48.09;96995.44;5074544;28;20193;-60
2022/07/03 07:23:25;;;;;;;108.20;102.75;;;;;;;27.08;47.63;96991.09;5063631;28;20616;-60
2022/07/03 07:25:51;;;;;;;102.97;97.72;;;;;;;27.14;47.63;96995.19;5054676;28;20280;-58
2022/07/03 07:28:17;;;;;;;112.57;106.90;;;;;;;26.73;48.67;96994.00;5054365;28;20186;-61
2022/07/03 07:30:42;;;;;;;133.77;127.15;;;;;;;26.92;48.48;96992.81;5036298;28;20198;-60
2022/07/03 07:33:09;;;;;;;103.63;98.28;;;;;;;26.78;47.60;96996.50;5053388;28;20170;-59
2022/07/03 07:35:34;;;;;;;115.20;108.90;;;;;;;27.14;46.16;97000.56;5053723;28;20220;-59
2022/07/03 07:38:00;;;;;;;374.20;355.58;;;;;;;27.15;45.37;97002.91;5036202;28;20185;-59
2022/07/03 07:40:25;;;;;;;253.38;241.10;;;;;;;27.45;45.49;97002.84;5073649;28;20364;-60
2022/07/03 07:42:50;;;;;;;386.35;366.88;;;;;;;27.47;44.77;97006.00;5074062;28;20230;-64
2022/07/03 07:45:16;;;;;;;289.58;275.60;;;;;;;27.48;45.27;97004.88;5056055;28;20205;-60
2022/07/03 07:47:42;;;;;;;271.48;258.33;;;;;;;27.52;45.09;97008.53;5074010;28;20185;-59
2022/07/03 07:50:08;;;;;;;364.95;346.52;;;;;;;27.47;43.89;97009.50;5073815;28;20635;-57
2022/07/03 07:52:33;;;;;;;412.40;391.30;;;;;;;27.39;43.18;97012.25;5073971;28;20563;-58
2022/07/03 07:54:59;;;;;;;450.05;426.58;;;;;;;27.55;42.79;97007.84;5073941;28;20160;-57
2022/07/03 07:57:24;;;;;;;395.60;375.23;;;;;;;27.65;43.50;97010.91;5072737;28;20254;-53
2022/07/03 07:59:50;;;;;;;425.88;403.63;;;;;;;27.68;43.49;97007.59;5053999;28;20203;-57
2022/07/03 08:07:43;;;;;;;556.15;526.67;;;;;;;27.55;42.94;97005.94;5072965;28;20544;-58
2022/07/03 08:10:09;;;;;;;578.58;547.55;;;;;;;27.67;42.29;97000.63;5072632;28;20293;-59
2022/07/03 08:12:34;;;;;;;582.97;552.22;;;;;;;27.88;41.97;96997.88;5072720;28;20188;-55
2022/07/03 08:14:59;;;;;;;433.13;410.77;;;;;;;28.06;41.01;96995.78;5073399;28;20217;-57
2022/07/03 08:17:25;;;;;;;579.20;547.70;;;;;;;27.66;39.92;96993.66;5073028;28;20226;-62
2022/07/03 08:19:50;;;;;;;637.50;602.42;;;;;;;27.72;39.67;96988.84;5073151;28;20643;-59
2022/07/03 08:22:16;;;;;;;591.38;560.00;;;;;;;27.87;39.69;96996.28;5073551;28;20346;-59
2022/07/03 08:24:41;;;;;;;487.25;461.80;;;;;;;27.83;39.10;96990.00;5055430;28;20184;-59
2022/07/03 08:27:07;;;;;;;441.08;418.42;;;;;;;27.93;38.87;96992.25;5072853;28;20267;-59
2022/07/03 08:29:32;;;;;;;469.88;445.95;;;;;;;27.86;39.43;96993.94;5073499;28;20583;-56
2022/07/03 08:31:58;;;;;;;349.42;331.65;;;;;;;27.40;39.60;96995.75;5072880;28;20251;-57
2022/07/03 08:34:23;;;;;;;294.55;279.42;;;;;;;27.69;38.88;96990.31;5072673;28;20189;-59
2022/07/03 08:36:50;;;;;;;292.50;277.63;;;;;;;27.99;39.10;96998.22;5072758;28;20182;-58
2022/07/03 08:39:16;;;;;;;274.40;260.42;;;;;;;28.04;38.63;96995.31;5070385;28;20232;-58
2022/07/03 08:41:42;;;;;;;244.93;232.57;;;;;;;28.00;38.37;96989.03;5073157;28;20244;-59
2022/07/03 08:44:12;;;;;;;243.27;230.95;;;;;;;27.93;38.40;96988.78;5073276;28;20169;-59
2022/07/03 08:46:40;;;;;;;218.30;207.23;;;;;;;27.90;38.91;96981.38;5072427;28;20258;-59
2022/07/03 08:49:07;;;;;;;238.13;226.07;;;;;;;27.77;38.64;96993.22;5071624;28;20599;-59
2022/07/03 08:51:34;;;;;;;164.50;155.93;;;;;;;27.64;37.42;96985.09;5072361;28;20200;-58
2022/07/03 08:54:03;;;;;;;126.93;120.53;;;;;;;28.26;36.92;96989.53;5072518;28;20169;-58
2022/07/03 08:56:29;;;;;;;102.15;96.88;;;;;;;28.06;36.87;96979.59;5072584;28;20169;-59
2022/07/03 08:58:58;;;;;;;110.93;105.47;;;;;;;28.03;36.76;96985.69;5072421;28;20177;-59
2022/07/03 09:01:24;;;;;;;117.85;112.05;;;;;;;27.99;37.02;96990.13;5071967;28;20284;-59
2022/07/03 09:03:51;;;;;;;107.53;102.30;;;;;;;27.81;38.22;96980.69;5071764;28;20162;-58
2022/07/03 09:06:16;;;;;;;111.95;106.10;;;;;;;27.81;38.12;96978.75;5054155;28;20199;-59
2022/07/03 09:08:44;;;;;;;120.75;114.88;;;;;;;27.98;37.65;96981.25;5071276;28;20185;-59
2022/07/03 09:11:10;;;;;;;125.97;119.65;;;;;;;28.01;38.57;96972.53;5069226;28;20237;-60
2022/07/03 09:13:35;;;;;;;142.38;135.68;;;;;;;28.04;37.40;96979.13;5071715;28;20177;-59
2022/07/03 09:16:01;;;;;;;99.78;94.70;;;;;;;28.09;36.44;96974.31;5070254;28;20157;-59
2022/07/03 09:18:44;;;;;;;165.00;157.20;;;;;;;28.22;36.69;96977.06;5069795;28;20607;-61
2022/07/03 09:21:10;;;;;;;175.57;167.10;;;;;;;28.24;37.46;96974.84;5068824;28;20201;-64
2022/07/03 09:23:42;;;;;;;174.85;166.45;;;;;;;28.17;37.68;96972.69;5070692;28;20177;-58
2022/07/03 09:26:13;;;;;;;177.68;169.35;;;;;;;28.30;36.68;96968.09;5070706;28;20213;-57
2022/07/03 09:28:47;;;;;;;31.60;30.02;;;;;;;28.07;33.44;96979.28;5070845;28;20192;-59
2022/07/03 09:31:15;;;;;;;30.90;29.25;;;;;;;28.01;34.30;96977.91;5070539;28;20608;-60
2022/07/03 09:34:01;;;;;;;36.88;35.05;;;;;;;28.02;35.42;96976.81;5071153;28;20218;-58
2022/07/03 09:36:52;;;;;;;79.00;75.05;;;;;;;27.61;36.96;96979.59;5070428;28;20195;-61
2022/07/03 09:39:25;;;;;;;59.97;56.97;;;;;;;28.06;35.59;96969.63;5061802;28;20294;-56
2022/07/03 09:42:03;;;;;;;67.32;64.00;;;;;;;27.90;36.21;96973.28;5070865;28;20319;-60
2022/07/03 09:44:33;;;;;;;70.07;66.60;;;;;;;27.95;35.72;96963.06;5070194;28;20207;-61
2022/07/03 09:47:08;;;;;;;45.58;43.28;;;;;;;28.23;35.34;96968.66;5069950;28;20234;-61
2022/07/03 09:49:54;;;;;;;71.68;68.13;;;;;;;28.06;36.57;96968.81;5070628;28;20172;-59
2022/07/03 09:52:40;;;;;;;50.10;47.60;;;;;;;28.14;36.23;96970.69;5071502;28;20197;-61
2022/07/03 09:55:08;;;;;;;41.08;38.97;;;;;;;27.89;36.12;96956.31;5070587;28;20173;-61
2022/07/03 09:57:34;;;;;;;46.25;43.88;;;;;;;27.85;36.83;96960.81;5069878;28;20173;-60
2022/07/03 10:00:22;;;;;;;53.97;51.25;;;;;;;27.83;37.03;96956.88;5052881;28;20544;-60
2022/07/03 10:02:54;;;;;;;51.88;49.30;;;;;;;27.96;36.57;96956.56;5071650;28;20162;-59
2022/07/03 10:05:24;;;;;;;31.33;29.83;;;;;;;27.66;35.54;96955.94;5075416;28;20567;-60
2022/07/03 10:07:51;;;;;;;38.55;36.65;;;;;;;27.67;36.54;96952.13;5075233;28;20699;-59
2022/07/03 10:10:19;;;;;;;30.13;28.60;;;;;;;27.82;35.60;96957.97;5075211;28;20189;-59
2022/07/03 10:12:47;;;;;;;62.25;59.15;;;;;;;27.80;34.75;96957.56;5075156;28;20169;-60
2022/07/03 10:15:14;;;;;;;35.08;33.35;;;;;;;27.79;35.33;96966.75;5075254;28;20177;-60
2022/07/03 10:17:42;;;;;;;32.25;30.65;;;;;;;27.91;36.21;96950.63;5075195;28;20170;-60
2022/07/03 10:20:15;;;;;;;34.00;32.30;;;;;;;27.84;35.95;96958.44;5075230;28;20173;-60
2022/07/03 10:22:46;;;;;;;35.25;33.53;;;;;;;27.97;35.75;96955.47;5057304;28;20188;-58
2022/07/03 10:25:13;;;;;;;37.55;35.72;;;;;;;27.88;35.91;96956.66;5066414;28;20226;-60
2022/07/03 10:27:39;;;;;;;57.22;54.45;;;;;;;27.85;35.17;96952.72;5070369;28;20186;-58
2022/07/03 10:30:05;;;;;;;30.58;29.08;;;;;;;27.70;36.13;96956.84;5073949;28;20199;-60
2022/07/03 10:32:33;;;;;;;36.20;34.47;;;;;;;27.51;36.04;96956.56;5076505;28;20220;-60
2022/07/03 10:35:01;;;;;;;102.82;97.93;;;;;;;27.63;37.80;96951.22;5069378;28;20169;-59
2022/07/03 10:37:37;;;;;;;70.57;67.25;;;;;;;27.62;36.69;96955.03;5078823;28;20654;-60
2022/07/03 10:46:14;;;;;;;91.63;87.35;;;;;;;27.59;36.51;96949.50;5074864;28;20213;-59
2022/07/03 10:48:55;;;;;;;80.85;77.10;;;;;;;27.28;37.20;96945.34;5069396;28;20268;-60
2022/07/03 10:51:21;;;;;;;210.70;200.80;;;;;;;27.52;38.13;96946.59;5073904;28;20201;-60
2022/07/03 10:53:47;;;;;;;156.45;149.05;;;;;;;27.70;37.64;96953.34;5073811;28;20534;-60
2022/07/03 10:56:12;;;;;;;105.32;100.30;;;;;;;27.76;37.16;96938.56;5074015;28;20289;-60
2022/07/03 10:58:57;;;;;;;89.68;85.22;;;;;;;27.80;37.22;96936.78;5074243;28;20166;-60
2022/07/03 11:01:30;;;;;;;98.65;93.93;;;;;;;27.57;37.24;96941.78;5074298;28;20193;-60
2022/07/03 11:04:00;;;;;;;55.20;52.53;;;;;;;27.24;36.85;96932.88;5074249;28;20169;-59
2022/07/03 11:06:44;;;;;;;92.20;87.88;;;;;;;27.62;37.14;96930.78;5074015;28;20661;-60
2022/07/03 11:09:13;;;;;;;86.90;82.85;;;;;;;27.62;37.10;96932.69;5069580;28;20201;-60
2022/07/03 11:11:56;;;;;;;88.95;84.82;;;;;;;27.59;37.33;96927.94;5073688;28;20287;-60
2022/07/03 11:14:25;;;;;;;111.97;106.72;;;;;;;27.39;37.25;96921.47;5072887;28;20613;-60
2022/07/03 11:17:30;;;;;;;206.60;196.82;;;;;;;27.68;37.99;96932.16;5072931;28;20258;-59
2022/07/03 11:23:16;;;;;;;260.95;248.57;;;;;;;27.97;37.42;96922.31;5073375;28;20664;-59
2022/07/03 11:25:47;;;;;;;198.45;189.18;;;;;;;28.20;36.62;96917.31;5031986;28;20230;-60
2022/07/03 11:28:31;;;;;;;111.72;106.45;;;;;;;28.07;37.02;96911.09;5072450;28;20276;-61
2022/07/03 11:31:13;;;;;;;61.97;58.92;;;;;;;27.67;37.02;96902.84;5073173;28;20204;-61
2022/07/03 11:33:42;;;;;;;130.23;124.13;;;;;;;27.94;37.39;96909.50;5073405;28;20326;-61
2022/07/03 11:36:11;;;;;;;80.00;76.03;;;;;;;27.86;37.34;96905.81;5073065;28;20267;-62